Search for airport 
image banner adimage banner adimage banner ad
image banner ad

CN53 - Kings County Houston Ave

Located in Hanford, United States

ICAO - CN53, IATA -

Data provided by Airmate  

General information

Coordinates: N36°17'60" W119°35'41"
Elevation is 239 feet MSL.
 
View others Airports in California

Operational data

Special qualification required
Current time UTC:
Current local time:
Weather at : KHJO - Hanford Muni ( 3 km )
METAR: KHJO 210853Z AUTO 32008KT 10SM CLR 26/12 A2978 RMK AO2 SLP084 T02610117 51004 $
View NOTAMs / SUP AIP / TFR affecting this airport [VIEW]
Communications frequencies: [VIEW]

Runways:

Airport contact information

Address: Hanford United States

Satellite view of CN53